Time;durP1;ratioP1;P1;durP2;ratioP2;P2;SDS_P1;SDS_P2;PMS_P1;PMS_P2;Temp;Humidity;BMP_temperature;BMP_pressure;BME280_temperature;BME280_humidity;BME280_pressure;Samples;Min_cycle;Max_cycle;Signal;HPM_P1;HPM_P2
2022/06/26 00:00:19;;;;;;;3.10;1.53;;;;;;;23.99;65.07;100164.38;4972488;28;20181;-71
2022/06/26 00:02:46;;;;;;;5.03;1.80;;;;;;;23.93;64.55;100151.63;4973380;28;20646;-71
2022/06/26 00:05:12;;;;;;;4.93;1.30;;;;;;;24.17;64.00;100156.41;4974319;28;20454;-70
2022/06/26 00:07:37;;;;;;;3.60;1.63;;;;;;;24.23;63.29;100135.34;4957808;28;20432;-71
2022/06/26 00:10:03;;;;;;;5.53;1.60;;;;;;;24.34;63.14;100133.19;4974002;28;20185;-70
2022/06/26 00:12:28;;;;;;;2.90;1.57;;;;;;;24.33;63.19;100111.34;4974020;28;20205;-70
2022/06/26 00:14:54;;;;;;;2.33;1.50;;;;;;;24.41;62.43;100089.03;4974882;28;20171;-70
2022/06/26 00:17:19;;;;;;;3.40;1.50;;;;;;;24.44;62.36;100077.44;4955738;28;20166;-70
2022/06/26 00:19:44;;;;;;;2.37;1.37;;;;;;;24.46;62.39;100077.84;4972766;28;20179;-70
2022/06/26 00:22:10;;;;;;;5.37;1.63;;;;;;;24.48;62.39;100092.66;4987733;28;20177;-71
2022/06/26 00:24:36;;;;;;;2.77;1.40;;;;;;;24.49;62.55;100084.84;4973995;28;20167;-72
2022/06/26 00:27:03;;;;;;;4.07;1.20;;;;;;;24.51;62.50;100083.16;4946184;28;21069;-70
2022/06/26 00:29:30;;;;;;;3.97;1.57;;;;;;;24.53;62.51;100080.66;4992080;28;20449;-70
2022/06/26 00:31:55;;;;;;;2.43;1.40;;;;;;;24.54;62.15;100085.19;4993163;28;20464;-72
2022/06/26 00:34:21;;;;;;;3.03;1.33;;;;;;;24.54;62.43;100082.28;4993021;28;20789;-70
2022/06/26 00:36:46;;;;;;;4.50;1.87;;;;;;;24.55;62.56;100089.72;4968679;28;20175;-71
2022/06/26 00:39:12;;;;;;;9.43;1.40;;;;;;;24.56;62.71;100087.63;4975474;28;20326;-71
2022/06/26 00:41:38;;;;;;;4.20;1.97;;;;;;;24.56;62.43;100091.34;4956760;28;20630;-70
2022/06/26 00:44:14;;;;;;;5.53;1.50;;;;;;;24.57;62.54;100104.53;4955195;28;20175;-73
2022/06/26 00:46:39;;;;;;;3.60;1.37;;;;;;;24.55;62.47;100107.03;4972282;28;20435;-71
2022/06/26 00:49:05;;;;;;;5.37;1.50;;;;;;;24.55;62.73;100104.16;4968727;28;20417;-70
2022/06/26 00:51:30;;;;;;;5.27;1.40;;;;;;;24.55;62.70;100107.03;4955566;28;20692;-70
2022/06/26 00:53:56;;;;;;;4.30;1.53;;;;;;;24.54;62.65;100111.16;4973708;28;20178;-71
2022/06/26 00:56:21;;;;;;;3.67;1.50;;;;;;;24.56;62.18;100102.91;4971913;28;20190;-71
2022/06/26 00:58:46;;;;;;;3.83;1.47;;;;;;;24.55;62.56;100112.81;4955978;28;20182;-70
2022/06/26 01:01:12;;;;;;;3.47;1.40;;;;;;;24.57;62.49;100115.25;4971253;28;20684;-70
2022/06/26 01:03:37;;;;;;;2.73;1.30;;;;;;;24.57;62.58;100115.25;4952596;29;20187;-71
2022/06/26 01:06:05;;;;;;;9.07;1.60;;;;;;;24.56;62.80;100108.69;4952545;28;20231;-70
2022/06/26 01:08:30;;;;;;;3.87;1.67;;;;;;;24.56;62.62;100104.97;4934141;29;20175;-71
2022/06/26 01:10:56;;;;;;;3.30;1.50;;;;;;;24.56;62.64;100091.34;4953079;29;21019;-71
2022/06/26 01:13:21;;;;;;;5.30;1.40;;;;;;;24.57;62.82;100080.63;4951957;29;20207;-71
2022/06/26 01:15:47;;;;;;;2.53;1.43;;;;;;;24.56;62.76;100073.22;4955975;28;20183;-70
2022/06/26 01:18:12;;;;;;;3.43;1.60;;;;;;;24.56;63.04;100073.22;4953941;29;20182;-71
2022/06/26 01:20:38;;;;;;;4.20;1.60;;;;;;;24.56;62.67;100079.81;4969102;28;20175;-71
2022/06/26 01:23:04;;;;;;;3.00;1.47;;;;;;;24.56;62.94;100071.16;4952018;28;20202;-71
2022/06/26 01:25:48;;;;;;;3.00;1.63;;;;;;;24.57;62.71;100069.91;4957669;28;20635;-71
2022/06/26 01:28:13;;;;;;;2.17;1.20;;;;;;;24.56;62.94;100068.25;4956623;28;20413;-70
2022/06/26 01:30:39;;;;;;;2.73;1.30;;;;;;;24.56;62.77;100061.66;4974747;28;20451;-71
2022/06/26 01:33:06;;;;;;;3.33;1.80;;;;;;;24.56;62.79;100065.38;4976678;28;20202;-71
2022/06/26 01:35:31;;;;;;;3.57;1.40;;;;;;;24.56;62.93;100067.44;4974975;28;20553;-71
2022/06/26 01:38:13;;;;;;;3.33;1.50;;;;;;;24.56;62.73;100061.66;4977457;28;20417;-70
2022/06/26 01:40:39;;;;;;;3.13;1.60;;;;;;;24.55;62.75;100060.84;4992919;28;20231;-70
2022/06/26 01:43:04;;;;;;;3.63;1.50;;;;;;;24.55;62.97;100055.09;4969786;28;20904;-71
2022/06/26 01:45:30;;;;;;;2.13;1.30;;;;;;;24.56;63.00;100050.13;4991961;28;20509;-71
2022/06/26 01:47:55;;;;;;;3.90;1.40;;;;;;;24.56;62.67;100047.22;4978235;28;20169;-70
2022/06/26 01:50:20;;;;;;;2.30;1.43;;;;;;;24.55;62.82;100043.53;4968450;28;20240;-71
2022/06/26 01:52:46;;;;;;;3.37;1.60;;;;;;;24.55;62.86;100043.53;4975788;28;20198;-71
2022/06/26 01:55:11;;;;;;;5.07;1.90;;;;;;;24.56;62.98;100045.16;4970336;28;20241;-71
2022/06/26 01:57:37;;;;;;;3.33;1.53;;;;;;;24.56;62.76;100044.34;4956993;28;20178;-71
2022/06/26 02:00:05;;;;;;;2.17;1.13;;;;;;;24.56;63.23;100050.13;4970101;28;20174;-70
2022/06/26 02:02:33;;;;;;;3.60;1.60;;;;;;;24.55;62.93;100051.38;4968926;28;20205;-71
2022/06/26 02:04:59;;;;;;;7.63;1.40;;;;;;;24.55;62.63;100057.97;4952387;28;20474;-70
2022/06/26 02:07:25;;;;;;;3.67;1.70;;;;;;;24.54;62.56;100044.75;4970875;28;20425;-71
2022/06/26 02:15:29;;;;;;;3.30;1.30;;;;;;;24.55;62.94;100034.88;4954583;28;20423;-71
2022/06/26 02:17:55;;;;;;;3.70;1.80;;;;;;;24.53;62.90;100034.47;4969745;28;20786;-71
2022/06/26 02:20:21;;;;;;;3.47;1.57;;;;;;;24.53;62.55;100040.25;4956088;28;20190;-70
2022/06/26 02:22:46;;;;;;;2.50;1.33;;;;;;;24.53;62.80;100037.34;4968712;28;20173;-70
2022/06/26 02:25:11;;;;;;;2.73;1.53;;;;;;;24.53;62.94;100037.34;4969862;28;20269;-70
2022/06/26 02:27:37;;;;;;;2.27;1.47;;;;;;;24.53;62.72;100027.91;4991717;28;20190;-70
2022/06/26 02:30:03;;;;;;;2.90;1.60;;;;;;;24.52;62.83;100027.06;4988880;28;20177;-71
2022/06/26 02:32:28;;;;;;;3.23;1.60;;;;;;;24.52;62.76;100027.06;4991211;28;20205;-70
2022/06/26 02:34:54;;;;;;;5.00;1.60;;;;;;;24.51;62.71;100025.44;4972714;28;20162;-71
2022/06/26 02:37:19;;;;;;;5.07;1.87;;;;;;;24.51;62.93;100030.38;4988140;28;20257;-70
2022/06/26 02:39:45;;;;;;;3.37;1.70;;;;;;;24.49;62.47;100038.66;4995601;28;20173;-71
2022/06/26 02:42:10;;;;;;;2.60;1.40;;;;;;;24.48;63.00;100034.94;4972826;28;20177;-70
2022/06/26 02:44:36;;;;;;;4.60;1.90;;;;;;;24.47;62.45;100041.97;4987137;28;20779;-71
2022/06/26 02:47:01;;;;;;;4.13;1.73;;;;;;;24.47;62.91;100036.19;4974697;28;20497;-71
2022/06/26 02:49:27;;;;;;;2.80;1.60;;;;;;;24.47;62.81;100033.31;4972862;28;20298;-72
2022/06/26 02:51:52;;;;;;;10.13;2.07;;;;;;;24.48;62.54;100034.13;4977627;28;20190;-70
2022/06/26 02:54:18;;;;;;;5.03;1.60;;;;;;;24.47;62.60;100039.06;4984767;28;20181;-71
2022/06/26 02:56:43;;;;;;;4.17;1.90;;;;;;;24.47;62.69;100049.78;4979101;28;20182;-70
2022/06/26 02:59:09;;;;;;;2.90;1.80;;;;;;;24.44;62.32;100054.34;4974976;28;20179;-71
2022/06/26 03:01:34;;;;;;;4.80;1.47;;;;;;;24.41;62.27;100058.09;4942954;28;20237;-72
2022/06/26 03:03:59;;;;;;;2.80;1.60;;;;;;;24.42;62.24;100062.63;4956649;28;20206;-72
2022/06/26 03:06:25;;;;;;;5.23;1.40;;;;;;;24.42;62.44;100053.13;4958885;28;20289;-71
2022/06/26 03:08:50;;;;;;;5.30;1.70;;;;;;;24.43;62.83;100060.56;4976834;28;20580;-71
2022/06/26 03:11:16;;;;;;;5.23;1.53;;;;;;;24.43;62.40;100064.25;4974169;28;20182;-71
2022/06/26 03:13:41;;;;;;;3.83;2.63;;;;;;;24.44;62.07;100063.00;4962856;28;20264;-70
2022/06/26 03:16:07;;;;;;;4.83;1.30;;;;;;;24.45;62.11;100060.94;4979240;28;20315;-70
2022/06/26 03:18:32;;;;;;;2.57;1.10;;;;;;;24.44;62.55;100060.13;4977974;28;20175;-71
2022/06/26 03:20:58;;;;;;;5.53;1.63;;;;;;;24.45;62.44;100061.78;4977475;28;20194;-71
2022/06/26 03:26:07;;;;;;;3.50;1.87;;;;;;;24.45;62.12;100056.00;4962188;28;20277;-71
2022/06/26 03:28:33;;;;;;;2.40;1.43;;;;;;;24.45;62.08;100060.94;4978736;28;20421;-73
2022/06/26 03:30:58;;;;;;;2.17;1.57;;;;;;;24.44;61.91;100065.88;4978608;28;20185;-70
2022/06/26 03:33:23;;;;;;;3.50;1.70;;;;;;;24.44;62.14;100074.56;4975227;28;20556;-69
2022/06/26 03:35:49;;;;;;;3.97;1.60;;;;;;;24.43;62.18;100078.69;4976407;28;20633;-71
2022/06/26 03:38:15;;;;;;;2.97;1.50;;;;;;;24.43;62.17;100067.16;4979860;28;20170;-71
2022/06/26 03:40:40;;;;;;;3.40;1.50;;;;;;;24.43;62.28;100067.16;4987035;28;20178;-70
2022/06/26 03:43:09;;;;;;;6.73;1.43;;;;;;;24.44;62.03;100065.09;4977670;28;20174;-73
2022/06/26 03:45:35;;;;;;;2.50;1.43;;;;;;;24.43;62.22;100061.38;4978563;28;20182;-71
2022/06/26 03:48:00;;;;;;;2.90;1.20;;;;;;;24.42;62.11;100062.63;4984525;28;20425;-71
2022/06/26 03:50:26;;;;;;;3.03;1.50;;;;;;;24.43;61.83;100064.25;4955539;28;20221;-71
2022/06/26 03:52:51;;;;;;;2.50;1.40;;;;;;;24.43;61.74;100063.47;4971570;28;20285;-70
2022/06/26 03:55:16;;;;;;;2.73;1.47;;;;;;;24.42;62.07;100050.25;4977885;28;20179;-71
2022/06/26 03:57:42;;;;;;;2.23;1.43;;;;;;;24.42;62.09;100056.03;4935751;29;20171;-70
2022/06/26 04:00:08;;;;;;;2.90;1.43;;;;;;;24.42;61.63;100053.97;4955468;28;20179;-70
2022/06/26 04:02:33;;;;;;;2.20;1.50;;;;;;;24.43;62.03;100049.03;4954974;28;20175;-71
2022/06/26 04:04:58;;;;;;;3.60;1.60;;;;;;;24.41;61.96;100055.22;4955349;29;20852;-71
2022/06/26 04:07:24;;;;;;;2.70;1.63;;;;;;;24.42;61.81;100056.84;4971096;28;20187;-70
2022/06/26 04:09:49;;;;;;;3.13;1.70;;;;;;;24.42;61.72;100056.03;4971507;28;20175;-71
2022/06/26 04:12:18;;;;;;;2.80;1.60;;;;;;;24.42;61.79;100050.25;4959412;29;20311;-71
2022/06/26 04:14:43;;;;;;;4.20;1.40;;;;;;;24.41;61.50;100046.56;4945045;28;20546;-71
2022/06/26 04:17:08;;;;;;;2.90;1.77;;;;;;;24.41;61.50;100052.34;4972209;28;20518;-71
2022/06/26 04:19:34;;;;;;;4.20;1.30;;;;;;;24.40;61.52;100050.69;4967069;28;20175;-73
2022/06/26 04:22:00;;;;;;;4.03;2.07;;;;;;;24.41;61.76;100055.22;4968170;28;20194;-73
2022/06/26 04:24:26;;;;;;;3.53;1.47;;;;;;;24.39;61.68;100063.47;4969205;28;20178;-71
2022/06/26 04:26:51;;;;;;;2.80;1.50;;;;;;;24.41;61.68;100071.69;4978126;28;20920;-71
2022/06/26 04:29:17;;;;;;;5.80;1.37;;;;;;;24.40;61.74;100065.13;4996811;28;20244;-73
2022/06/26 04:31:42;;;;;;;2.80;1.50;;;;;;;24.41;61.46;100084.09;4975814;28;20185;-71
2022/06/26 04:34:07;;;;;;;5.90;1.33;;;;;;;24.40;61.58;100085.34;4993477;28;20228;-71
2022/06/26 04:36:33;;;;;;;4.47;1.77;;;;;;;24.40;61.93;100087.38;4995058;28;20618;-71
2022/06/26 04:38:58;;;;;;;3.70;1.57;;;;;;;24.40;62.19;100091.09;4985037;28;20178;-73
2022/06/26 04:41:34;;;;;;;2.67;1.40;;;;;;;24.42;61.60;100087.75;4990859;28;20653;-74
2022/06/26 04:44:11;;;;;;;8.53;1.87;;;;;;;24.45;61.70;100099.31;4996504;28;20146;-71
2022/06/26 04:46:39;;;;;;;2.33;1.47;;;;;;;24.46;61.59;100109.59;4975542;28;20427;-70
2022/06/26 04:49:04;;;;;;;2.20;1.37;;;;;;;24.45;61.71;100105.06;4975907;28;20432;-71
2022/06/26 04:51:30;;;;;;;2.63;1.50;;;;;;;24.43;61.52;100095.19;4957819;28;20421;-71
2022/06/26 04:54:03;;;;;;;4.33;1.50;;;;;;;24.41;61.91;100089.03;4974154;28;20197;-71
2022/06/26 04:56:28;;;;;;;3.30;1.50;;;;;;;24.40;61.87;100087.38;4963637;28;20197;-70
2022/06/26 04:58:54;;;;;;;2.33;1.30;;;;;;;24.40;62.08;100094.00;4979552;28;21187;-72
2022/06/26 05:01:19;;;;;;;4.77;1.60;;;;;;;24.41;61.93;100107.16;4966390;28;20274;-71
2022/06/26 05:03:45;;;;;;;3.10;1.70;;;;;;;24.40;61.83;100099.75;4957586;28;20541;-71
2022/06/26 05:06:10;;;;;;;8.93;2.00;;;;;;;24.41;61.86;100112.94;4976068;28;20234;-71
2022/06/26 05:08:36;;;;;;;3.00;1.70;;;;;;;24.39;62.30;100115.41;4968227;28;20318;-71
2022/06/26 05:11:01;;;;;;;3.50;1.60;;;;;;;24.38;61.78;100113.78;4971153;28;20182;-71
2022/06/26 05:13:27;;;;;;;3.17;1.97;;;;;;;24.38;62.22;100112.97;4953281;28;20205;-70
2022/06/26 05:15:52;;;;;;;6.77;1.77;;;;;;;24.40;62.54;100113.38;4975913;28;20167;-71
2022/06/26 05:18:18;;;;;;;3.27;1.73;;;;;;;24.41;61.84;100097.69;4968527;28;20182;-70
2022/06/26 05:20:43;;;;;;;2.37;1.60;;;;;;;24.41;62.09;100089.03;4960257;28;20187;-70
2022/06/26 05:23:11;;;;;;;3.20;2.00;;;;;;;24.40;62.33;100093.16;4973162;28;20159;-70
2022/06/26 05:25:37;;;;;;;4.27;2.20;;;;;;;24.37;62.95;100102.66;4974748;28;20182;-71
2022/06/26 05:28:02;;;;;;;2.80;1.83;;;;;;;24.37;62.65;100099.78;4965210;28;20862;-70
2022/06/26 05:30:28;;;;;;;4.83;2.00;;;;;;;24.37;62.39;100109.25;4969482;28;20177;-70
2022/06/26 05:32:53;;;;;;;4.50;2.00;;;;;;;24.38;62.38;100101.44;4972790;28;20585;-70
2022/06/26 05:35:19;;;;;;;4.60;1.80;;;;;;;24.36;62.54;100104.75;4956357;28;20194;-71
2022/06/26 05:37:44;;;;;;;3.93;1.90;;;;;;;24.37;62.63;100114.19;4974119;28;20177;-71
2022/06/26 05:40:10;;;;;;;4.60;2.50;;;;;;;24.38;62.56;100110.09;4957918;28;20182;-71
2022/06/26 05:42:35;;;;;;;5.00;2.20;;;;;;;24.38;62.88;100115.88;4978293;28;20660;-71
2022/06/26 05:45:01;;;;;;;4.30;1.90;;;;;;;24.37;62.32;100117.91;4959762;28;20178;-71
2022/06/26 05:47:26;;;;;;;2.70;2.00;;;;;;;24.38;62.88;100131.09;4952227;28;20545;-71
2022/06/26 05:49:51;;;;;;;3.30;2.20;;;;;;;24.38;62.53;100141.84;4975903;28;20170;-71
2022/06/26 05:52:17;;;;;;;4.80;2.30;;;;;;;24.37;62.56;100129.47;4975146;28;20203;-71
2022/06/26 05:54:42;;;;;;;3.53;2.30;;;;;;;24.37;62.95;100129.47;4967905;28;20673;-71
2022/06/26 05:57:08;;;;;;;5.30;2.03;;;;;;;24.38;62.97;100136.06;4971828;28;20154;-71
2022/06/26 05:59:33;;;;;;;4.17;2.60;;;;;;;24.39;62.60;100144.28;4954051;28;20646;-71
2022/06/26 06:01:59;;;;;;;4.50;2.40;;;;;;;24.40;62.66;100148.81;4970987;28;20630;-71
2022/06/26 06:04:24;;;;;;;6.87;2.70;;;;;;;24.40;62.75;100160.38;4973000;28;20191;-71
2022/06/26 06:06:49;;;;;;;3.40;2.37;;;;;;;24.47;63.09;100160.31;4963995;28;20249;-71
2022/06/26 06:09:15;;;;;;;3.40;2.10;;;;;;;24.48;62.58;100159.03;4969321;28;20198;-70
2022/06/26 06:11:40;;;;;;;3.60;2.37;;;;;;;24.51;62.72;100166.88;4970778;28;20256;-71
2022/06/26 06:14:06;;;;;;;3.33;2.50;;;;;;;24.48;62.90;100164.81;4956495;28;20175;-72
2022/06/26 06:16:31;;;;;;;5.67;3.37;;;;;;;24.24;63.60;100162.13;4972455;28;20183;-70
2022/06/26 06:18:57;;;;;;;3.33;2.83;;;;;;;24.42;62.95;100163.63;4978942;28;20186;-71
2022/06/26 06:21:22;;;;;;;3.73;2.93;;;;;;;24.48;62.96;100166.91;4973463;28;20186;-70
2022/06/26 06:23:47;;;;;;;3.63;2.67;;;;;;;24.40;63.73;100168.19;4971383;28;20181;-70
2022/06/26 06:26:14;;;;;;;4.80;3.07;;;;;;;24.33;63.34;100169.06;4954273;28;20190;-70
2022/06/26 06:28:40;;;;;;;4.27;3.00;;;;;;;24.38;63.38;100167.81;4990813;28;20181;-70
2022/06/26 06:31:05;;;;;;;5.93;2.87;;;;;;;24.40;63.05;100174.81;4995882;28;20425;-70
2022/06/26 06:33:31;;;;;;;7.00;2.80;;;;;;;24.27;63.75;100184.34;4980396;28;20212;-71
2022/06/26 06:35:56;;;;;;;5.17;3.00;;;;;;;24.31;63.27;100179.38;4993100;28;20177;-70
2022/06/26 06:38:22;;;;;;;3.80;2.67;;;;;;;24.36;63.17;100174.00;4993716;28;20170;-71
2022/06/26 06:40:47;;;;;;;3.93;2.70;;;;;;;24.38;63.37;100162.84;4993175;28;20265;-70
2022/06/26 06:43:13;;;;;;;6.07;3.20;;;;;;;24.40;63.28;100173.97;4992620;28;20185;-71
2022/06/26 06:45:38;;;;;;;7.60;2.87;;;;;;;24.39;63.04;100178.91;4977894;28;20537;-71
2022/06/26 06:48:04;;;;;;;6.17;3.50;;;;;;;24.38;62.88;100168.63;4977988;28;20178;-71
2022/06/26 06:50:30;;;;;;;4.00;3.30;;;;;;;24.41;63.02;100170.66;4963886;28;20183;-71
2022/06/26 06:52:56;;;;;;;5.23;2.90;;;;;;;24.44;62.99;100174.75;4938175;28;20226;-70
2022/06/26 06:55:21;;;;;;;4.40;3.57;;;;;;;24.25;64.02;100179.03;4961516;28;20273;-70
2022/06/26 06:57:47;;;;;;;3.63;2.67;;;;;;;24.39;62.94;100184.69;4963929;28;20425;-70
2022/06/26 07:00:12;;;;;;;4.90;3.10;;;;;;;24.13;64.19;100175.81;4957549;28;20185;-70
2022/06/26 07:02:38;;;;;;;5.70;3.53;;;;;;;24.30;63.57;100175.69;4975637;28;20829;-70
2022/06/26 07:05:05;;;;;;;4.67;2.90;;;;;;;24.26;64.10;100172.00;4973083;28;20245;-73
2022/06/26 07:07:31;;;;;;;5.73;3.00;;;;;;;24.28;63.63;100181.06;4977217;28;20199;-71
2022/06/26 07:09:56;;;;;;;5.03;3.03;;;;;;;24.35;63.50;100172.38;4977829;28;20425;-71
2022/06/26 07:12:21;;;;;;;6.37;3.60;;;;;;;24.22;64.03;100168.31;4958632;28;20640;-71
2022/06/26 07:14:47;;;;;;;4.80;2.67;;;;;;;24.23;64.06;100174.94;4960449;28;20182;-71
2022/06/26 07:17:13;;;;;;;4.17;2.70;;;;;;;24.27;63.80;100173.66;4973904;28;20174;-70
2022/06/26 07:19:39;;;;;;;3.87;2.60;;;;;;;24.28;63.84;100175.28;4977946;28;20201;-71
2022/06/26 07:22:05;;;;;;;4.00;3.00;;;;;;;24.34;63.61;100170.69;4974958;28;20422;-71
2022/06/26 07:24:31;;;;;;;4.80;2.93;;;;;;;24.27;63.88;100159.22;4956288;28;20182;-71
2022/06/26 07:26:56;;;;;;;4.97;2.80;;;;;;;24.31;63.79;100154.25;4967645;28;20473;-71
2022/06/26 07:29:22;;;;;;;4.73;2.70;;;;;;;24.35;63.18;100160.81;4995224;28;20794;-70
2022/06/26 07:31:48;;;;;;;5.07;2.80;;;;;;;24.04;64.96;100166.81;4998655;28;20169;-71
2022/06/26 07:34:13;;;;;;;8.47;2.90;;;;;;;23.96;65.21;100185.38;4991806;28;20174;-71
2022/06/26 07:36:46;;;;;;;3.53;2.37;;;;;;;24.18;64.66;100192.69;4980816;28;20420;-71
2022/06/26 07:39:12;;;;;;;6.57;3.40;;;;;;;24.26;64.24;100195.09;4981849;28;20176;-70
2022/06/26 07:41:38;;;;;;;5.10;2.90;;;;;;;24.15;64.71;100203.00;4991209;28;20421;-71
2022/06/26 07:44:04;;;;;;;4.20;3.00;;;;;;;24.25;64.07;100213.66;4975408;28;20946;-70
2022/06/26 07:46:29;;;;;;;3.60;2.53;;;;;;;24.29;63.91;100213.63;4977589;28;20171;-70
2022/06/26 07:48:55;;;;;;;7.33;2.50;;;;;;;24.26;64.13;100209.53;4966918;28;20242;-71
2022/06/26 07:51:20;;;;;;;3.17;2.10;;;;;;;24.24;64.63;100217.75;4971485;28;20166;-70
2022/06/26 07:53:46;;;;;;;3.47;2.10;;;;;;;24.23;64.30;100203.78;4956369;28;20673;-70
2022/06/26 07:56:13;;;;;;;4.13;2.27;;;;;;;23.99;65.42;100208.44;4973048;28;20226;-71
2022/06/26 07:58:38;;;;;;;4.17;2.40;;;;;;;24.19;64.52;100217.41;4959841;28;20541;-70
2022/06/26 08:01:03;;;;;;;5.97;2.50;;;;;;;24.24;64.45;100212.00;4956571;28;20433;-71
2022/06/26 08:03:29;;;;;;;3.70;1.90;;;;;;;24.04;65.02;100216.66;4956413;28;20194;-71
2022/06/26 08:05:55;;;;;;;3.50;2.13;;;;;;;24.18;64.54;100202.16;4969719;28;20226;-70
2022/06/26 08:08:20;;;;;;;4.43;2.63;;;;;;;24.01;64.94;100200.19;4942489;28;20174;-70
2022/06/26 08:10:46;;;;;;;4.13;2.00;;;;;;;24.13;64.08;100193.13;4975253;28;20174;-71
2022/06/26 08:13:11;;;;;;;2.87;2.20;;;;;;;24.23;63.82;100187.28;4958028;28;20190;-71
2022/06/26 08:15:37;;;;;;;3.90;2.10;;;;;;;24.27;63.45;100190.97;4960390;28;20179;-71
2022/06/26 08:18:02;;;;;;;2.50;1.60;;;;;;;24.25;64.18;100190.56;4975627;28;20182;-73
2022/06/26 08:20:28;;;;;;;2.17;1.63;;;;;;;24.08;64.27;100191.50;4955574;28;20175;-70
2022/06/26 08:22:53;;;;;;;4.10;2.20;;;;;;;24.16;64.08;100184.44;4970869;28;20642;-71
2022/06/26 08:25:19;;;;;;;2.70;1.87;;;;;;;24.27;63.55;100187.25;4953447;28;20178;-70
2022/06/26 08:27:44;;;;;;;3.10;1.77;;;;;;;24.25;63.54;100190.56;4967872;28;20606;-71
2022/06/26 08:30:10;;;;;;;3.60;2.00;;;;;;;24.16;64.09;100201.75;4991497;28;20602;-70
2022/06/26 08:32:36;;;;;;;3.30;1.87;;;;;;;24.24;63.53;100205.41;4976794;28;20197;-70
2022/06/26 08:35:03;;;;;;;3.70;1.90;;;;;;;24.17;63.98;100206.28;4973118;28;20268;-70
2022/06/26 08:37:34;;;;;;;3.33;1.60;;;;;;;24.18;63.58;100202.16;4991615;28;20884;-71
2022/06/26 08:40:00;;;;;;;3.60;1.53;;;;;;;24.12;63.95;100206.72;4960019;28;20504;-72
2022/06/26 08:42:28;;;;;;;15.80;2.20;;;;;;;24.23;63.63;100212.44;4956156;28;20465;-70
2022/06/26 08:44:56;;;;;;;4.80;1.90;;;;;;;24.30;63.05;100213.22;4970901;28;20182;-70
2022/06/26 08:47:22;;;;;;;2.53;1.40;;;;;;;24.33;63.13;100217.31;4960123;28;20428;-71
2022/06/26 08:49:47;;;;;;;3.30;1.60;;;;;;;24.33;62.70;100214.44;4963053;28;20429;-70
2022/06/26 08:52:14;;;;;;;4.53;1.67;;;;;;;24.19;63.82;100228.94;4976049;28;20457;-71
2022/06/26 08:54:40;;;;;;;2.07;1.37;;;;;;;24.20;63.38;100234.31;4956122;28;20174;-71
2022/06/26 08:57:06;;;;;;;3.63;1.60;;;;;;;24.29;62.89;100236.72;4974990;28;20441;-70
2022/06/26 08:59:31;;;;;;;2.97;1.33;;;;;;;24.29;63.02;100237.53;4975034;28;20346;-70
2022/06/26 09:01:56;;;;;;;2.63;1.83;;;;;;;24.30;62.76;100229.69;4958941;28;20171;-71
2022/06/26 09:04:22;;;;;;;3.30;1.70;;;;;;;24.32;63.10;100230.06;4956686;28;21003;-70
2022/06/26 09:06:47;;;;;;;3.10;1.60;;;;;;;24.30;63.00;100227.63;4953886;28;20281;-71
2022/06/26 09:09:13;;;;;;;3.63;1.63;;;;;;;24.31;62.77;100231.31;4956617;28;20221;-71
2022/06/26 09:11:39;;;;;;;2.93;1.60;;;;;;;24.28;62.18;100229.31;4973935;28;20542;-71
2022/06/26 09:14:04;;;;;;;3.40;1.60;;;;;;;24.29;62.65;100230.94;4972366;28;20198;-70
2022/06/26 09:16:31;;;;;;;3.50;1.90;;;;;;;24.12;62.44;100232.69;4972155;28;20646;-72
2022/06/26 09:19:08;;;;;;;4.30;1.60;;;;;;;24.23;62.14;100229.75;4953972;28;20166;-71
2022/06/26 09:21:35;;;;;;;3.07;1.60;;;;;;;24.27;62.17;100236.28;4959141;28;20409;-72
2022/06/26 09:24:01;;;;;;;2.40;1.50;;;;;;;24.29;62.34;100239.59;4955823;28;20792;-71
2022/06/26 09:26:26;;;;;;;3.87;1.60;;;;;;;24.07;62.72;100235.19;4956620;28;20422;-70
2022/06/26 09:28:52;;;;;;;1.93;1.43;;;;;;;24.21;62.06;100235.09;4993143;28;20980;-71
2022/06/26 09:31:21;;;;;;;2.27;1.30;;;;;;;24.16;62.47;100242.16;4975659;28;20180;-72
2022/06/26 09:33:46;;;;;;;3.63;1.40;;;;;;;24.25;62.26;100242.50;4977356;28;20308;-70
2022/06/26 09:36:16;;;;;;;2.50;1.50;;;;;;;24.26;62.19;100234.66;4976951;28;20455;-71
2022/06/26 09:38:50;;;;;;;2.60;1.70;;;;;;;24.19;62.43;100226.88;4993356;28;20205;-70
2022/06/26 09:41:16;;;;;;;2.90;1.50;;;;;;;24.25;62.57;100218.59;4991847;28;20413;-71
2022/06/26 09:43:42;;;;;;;2.63;1.50;;;;;;;24.16;62.49;100215.34;4979552;28;20421;-71
2022/06/26 09:46:16;;;;;;;4.60;1.73;;;;;;;24.13;62.89;100211.25;4971991;28;20660;-73
2022/06/26 09:48:42;;;;;;;3.10;1.70;;;;;;;24.16;62.65;100216.19;4955904;28;20409;-71
2022/06/26 09:51:09;;;;;;;2.60;1.27;;;;;;;24.23;62.31;100218.22;4956681;28;20425;-71
2022/06/26 09:53:35;;;;;;;2.23;1.30;;;;;;;24.21;62.35;100215.75;4972853;28;20235;-71
2022/06/26 09:56:00;;;;;;;2.97;1.67;;;;;;;24.25;62.30;100227.25;4970783;28;20449;-71
2022/06/26 09:58:26;;;;;;;3.20;1.47;;;;;;;24.31;61.73;100208.25;4956574;28;20230;-71
2022/06/26 10:06:27;;;;;;;3.03;1.53;;;;;;;24.18;62.43;100210.81;4972330;28;20466;-71
2022/06/26 10:09:06;;;;;;;3.63;1.83;;;;;;;24.21;63.13;100207.09;4972426;28;20425;-71
2022/06/26 10:11:33;;;;;;;3.50;1.50;;;;;;;24.23;62.33;100203.78;4956321;28;20433;-70
2022/06/26 10:14:18;;;;;;;3.00;1.50;;;;;;;24.32;61.98;100196.28;4956525;28;20934;-71
2022/06/26 10:16:47;;;;;;;3.40;1.80;;;;;;;24.35;61.91;100192.56;4969790;28;20429;-73
2022/06/26 10:19:34;;;;;;;4.87;1.90;;;;;;;24.31;62.56;100193.81;4969250;28;20767;-70
2022/06/26 10:21:59;;;;;;;2.90;1.60;;;;;;;24.32;61.91;100193.41;4971612;28;20426;-72
2022/06/26 10:24:25;;;;;;;2.40;1.63;;;;;;;24.34;61.68;100199.56;4956890;28;20436;-71
2022/06/26 10:26:59;;;;;;;3.80;2.03;;;;;;;24.38;61.72;100194.59;4947022;28;20645;-71
2022/06/26 10:29:37;;;;;;;2.87;1.53;;;;;;;24.39;61.49;100195.41;4973033;28;20904;-71
2022/06/26 10:32:04;;;;;;;2.73;1.50;;;;;;;24.36;61.33;100191.31;4974216;28;20468;-70
2022/06/26 10:34:31;;;;;;;2.33;1.47;;;;;;;24.38;61.84;100197.47;4955901;28;20433;-71
2022/06/26 10:37:07;;;;;;;9.73;1.70;;;;;;;24.39;61.72;100202.00;4973427;28;20452;-70
2022/06/26 10:39:38;;;;;;;2.70;1.63;;;;;;;24.37;61.38;100204.50;4953893;28;20516;-70
2022/06/26 10:45:19;;;;;;;5.23;1.60;;;;;;;24.37;61.83;100200.78;4956425;28;20472;-70
2022/06/26 10:48:05;;;;;;;2.97;1.87;;;;;;;24.38;61.55;100188.81;4954538;28;20449;-72
2022/06/26 10:50:31;;;;;;;2.77;1.80;;;;;;;24.38;61.78;100194.59;4955258;28;20440;-72
2022/06/26 10:53:12;;;;;;;2.53;1.50;;;;;;;24.40;61.64;100189.22;4971777;28;20961;-70
2022/06/26 10:55:38;;;;;;;5.50;1.87;;;;;;;24.40;61.59;100168.19;4972760;28;20505;-70
2022/06/26 10:58:04;;;;;;;2.43;1.60;;;;;;;24.41;61.92;100164.88;4982287;28;20435;-70
2022/06/26 11:00:29;;;;;;;3.43;1.60;;;;;;;24.42;62.38;100183.00;4990657;28;20865;-70
2022/06/26 11:02:55;;;;;;;3.63;1.80;;;;;;;24.40;61.52;100197.88;4977911;28;20241;-70
2022/06/26 11:05:20;;;;;;;1.93;1.30;;;;;;;24.43;61.70;100191.25;4952733;28;20230;-70
2022/06/26 11:07:46;;;;;;;2.50;1.90;;;;;;;24.38;62.42;100183.03;4954682;28;20216;-72
2022/06/26 11:10:13;;;;;;;3.00;2.13;;;;;;;24.45;61.69;100176.41;4970359;28;20178;-70
2022/06/26 11:12:49;;;;;;;3.30;1.90;;;;;;;24.49;61.84;100175.13;4970013;28;20493;-71
2022/06/26 11:15:30;;;;;;;2.60;1.70;;;;;;;24.52;61.45;100161.91;4952772;28;20436;-72
2022/06/26 11:18:00;;;;;;;2.70;1.77;;;;;;;24.48;61.57;100161.94;4942118;29;20466;-70
2022/06/26 11:23:13;;;;;;;6.63;1.83;;;;;;;24.45;62.66;100162.81;4955698;28;20418;-70
2022/06/26 11:25:40;;;;;;;2.53;1.70;;;;;;;24.37;61.85;100163.25;4953803;28;20418;-71
2022/06/26 11:28:08;;;;;;;2.60;1.70;;;;;;;24.40;61.85;100169.03;4957166;28;20479;-70
2022/06/26 11:30:35;;;;;;;1.80;1.40;;;;;;;24.46;61.80;100160.72;4976374;28;20499;-71
2022/06/26 11:33:01;;;;;;;3.57;1.70;;;;;;;24.47;61.59;100166.06;4976793;28;20824;-71
2022/06/26 11:35:26;;;;;;;2.40;1.30;;;;;;;24.51;61.06;100161.09;4977386;28;20488;-70
2022/06/26 11:37:52;;;;;;;2.43;1.57;;;;;;;24.49;61.20;100165.66;4994764;28;20959;-70
2022/06/26 11:40:18;;;;;;;4.63;1.80;;;;;;;24.42;61.53;100157.88;4995120;28;20170;-70